sensor_id;sensor_type;location;lat;lon;timestamp;temperature;humidity
6954;DHT22;3516;47.980;8.808;2022-08-27T00:02:07;25.60;96.40
6954;DHT22;3516;47.980;8.808;2022-08-27T00:04:33;25.60;96.50
6954;DHT22;3516;47.980;8.808;2022-08-27T00:07:00;25.60;96.50
6954;DHT22;3516;47.980;8.808;2022-08-27T00:09:27;25.60;96.60
6954;DHT22;3516;47.980;8.808;2022-08-27T00:11:54;25.60;96.60
6954;DHT22;3516;47.980;8.808;2022-08-27T00:14:22;25.60;96.70
6954;DHT22;3516;47.980;8.808;2022-08-27T00:16:48;25.60;96.80
6954;DHT22;3516;47.980;8.808;2022-08-27T00:19:17;25.60;96.80
6954;DHT22;3516;47.980;8.808;2022-08-27T00:21:43;25.60;96.80
6954;DHT22;3516;47.980;8.808;2022-08-27T00:24:10;25.60;96.90
6954;DHT22;3516;47.980;8.808;2022-08-27T00:26:37;25.60;97.00
6954;DHT22;3516;47.980;8.808;2022-08-27T00:29:04;25.60;97.00
6954;DHT22;3516;47.980;8.808;2022-08-27T00:31:32;25.60;97.00
6954;DHT22;3516;47.980;8.808;2022-08-27T00:33:59;25.60;97.10
6954;DHT22;3516;47.980;8.808;2022-08-27T00:36:27;25.60;97.20
6954;DHT22;3516;47.980;8.808;2022-08-27T00:38:54;25.60;97.20
6954;DHT22;3516;47.980;8.808;2022-08-27T00:41:20;25.60;97.30
6954;DHT22;3516;47.980;8.808;2022-08-27T00:43:48;25.60;97.30
6954;DHT22;3516;47.980;8.808;2022-08-27T00:46:18;25.60;97.30
6954;DHT22;3516;47.980;8.808;2022-08-27T00:48:46;25.60;97.40
6954;DHT22;3516;47.980;8.808;2022-08-27T00:51:13;25.60;97.40
6954;DHT22;3516;47.980;8.808;2022-08-27T00:53:41;25.60;97.50
6954;DHT22;3516;47.980;8.808;2022-08-27T00:56:09;25.60;97.50
6954;DHT22;3516;47.980;8.808;2022-08-27T00:58:37;25.60;97.50
6954;DHT22;3516;47.980;8.808;2022-08-27T01:01:10;25.60;97.50
6954;DHT22;3516;47.980;8.808;2022-08-27T01:03:37;25.60;97.60
6954;DHT22;3516;47.980;8.808;2022-08-27T01:06:05;25.60;97.60
6954;DHT22;3516;47.980;8.808;2022-08-27T01:08:36;25.60;97.60
6954;DHT22;3516;47.980;8.808;2022-08-27T01:11:06;25.60;97.60
6954;DHT22;3516;47.980;8.808;2022-08-27T01:13:33;25.60;97.70
6954;DHT22;3516;47.980;8.808;2022-08-27T01:16:00;25.60;97.70
6954;DHT22;3516;47.980;8.808;2022-08-27T01:18:28;25.60;97.80
6954;DHT22;3516;47.980;8.808;2022-08-27T01:20:58;25.60;97.90
6954;DHT22;3516;47.980;8.808;2022-08-27T01:23:26;25.60;97.90
6954;DHT22;3516;47.980;8.808;2022-08-27T01:25:58;25.60;98.00
6954;DHT22;3516;47.980;8.808;2022-08-27T01:28:25;25.60;97.90
6954;DHT22;3516;47.980;8.808;2022-08-27T01:30:52;25.60;98.00
6954;DHT22;3516;47.980;8.808;2022-08-27T01:33:19;25.60;98.00
6954;DHT22;3516;47.980;8.808;2022-08-27T01:35:47;25.60;98.00
6954;DHT22;3516;47.980;8.808;2022-08-27T01:38:15;25.60;98.00
6954;DHT22;3516;47.980;8.808;2022-08-27T01:40:42;25.60;98.20
6954;DHT22;3516;47.980;8.808;2022-08-27T01:43:10;25.60;98.20
6954;DHT22;3516;47.980;8.808;2022-08-27T01:45:37;25.60;98.30
6954;DHT22;3516;47.980;8.808;2022-08-27T01:48:04;25.60;98.40
6954;DHT22;3516;47.980;8.808;2022-08-27T01:50:36;25.60;98.40
6954;DHT22;3516;47.980;8.808;2022-08-27T01:53:04;25.60;98.50
6954;DHT22;3516;47.980;8.808;2022-08-27T01:55:32;25.60;98.60
6954;DHT22;3516;47.980;8.808;2022-08-27T01:57:59;25.60;98.60
6954;DHT22;3516;47.980;8.808;2022-08-27T02:00:28;25.60;98.70
6954;DHT22;3516;47.980;8.808;2022-08-27T02:02:56;25.60;98.80
6954;DHT22;3516;47.980;8.808;2022-08-27T02:05:23;25.60;98.90
6954;DHT22;3516;47.980;8.808;2022-08-27T02:07:49;25.60;99.00
6954;DHT22;3516;47.980;8.808;2022-08-27T02:10:17;25.60;99.10
6954;DHT22;3516;47.980;8.808;2022-08-27T02:12:45;25.60;99.10
6954;DHT22;3516;47.980;8.808;2022-08-27T02:15:12;25.60;99.20
6954;DHT22;3516;47.980;8.808;2022-08-27T02:17:41;25.60;99.30
6954;DHT22;3516;47.980;8.808;2022-08-27T02:20:08;25.60;99.40
6954;DHT22;3516;47.980;8.808;2022-08-27T02:22:35;25.60;99.50
6954;DHT22;3516;47.980;8.808;2022-08-27T02:25:02;25.60;99.50
6954;DHT22;3516;47.980;8.808;2022-08-27T02:27:29;25.60;99.60
6954;DHT22;3516;47.980;8.808;2022-08-27T02:29:56;25.60;99.70
6954;DHT22;3516;47.980;8.808;2022-08-27T02:32:23;25.60;99.80
6954;DHT22;3516;47.980;8.808;2022-08-27T02:34:51;25.60;99.80
6954;DHT22;3516;47.980;8.808;2022-08-27T02:37:17;25.60;99.90
6954;DHT22;3516;47.980;8.808;2022-08-27T02:39:44;25.60;99.90
6954;DHT22;3516;47.980;8.808;2022-08-27T02:42:11;25.60;99.90
6954;DHT22;3516;47.980;8.808;2022-08-27T02:44:37;25.60;99.90
6954;DHT22;3516;47.980;8.808;2022-08-27T02:47:04;25.60;99.90
6954;DHT22;3516;47.980;8.808;2022-08-27T02:49:31;25.60;99.90
6954;DHT22;3516;47.980;8.808;2022-08-27T02:51:59;25.60;99.90
6954;DHT22;3516;47.980;8.808;2022-08-27T02:54:28;25.60;99.90
6954;DHT22;3516;47.980;8.808;2022-08-27T02:56:55;25.60;99.90
6954;DHT22;3516;47.980;8.808;2022-08-27T02:59:21;25.60;99.90
6954;DHT22;3516;47.980;8.808;2022-08-27T03:01:48;25.60;99.90
6954;DHT22;3516;47.980;8.808;2022-08-27T03:04:15;25.60;99.90
6954;DHT22;3516;47.980;8.808;2022-08-27T03:06:44;25.60;99.90
6954;DHT22;3516;47.980;8.808;2022-08-27T03:09:12;25.60;99.90
6954;DHT22;3516;47.980;8.808;2022-08-27T03:11:38;25.50;99.90
6954;DHT22;3516;47.980;8.808;2022-08-27T03:14:05;25.60;99.90
6954;DHT22;3516;47.980;8.808;2022-08-27T03:16:32;25.60;99.90
6954;DHT22;3516;47.980;8.808;2022-08-27T03:18:59;25.60;99.90
6954;DHT22;3516;47.980;8.808;2022-08-27T03:21:25;25.50;99.90
6954;DHT22;3516;47.980;8.808;2022-08-27T03:23:52;25.60;99.90
6954;DHT22;3516;47.980;8.808;2022-08-27T03:26:20;25.60;99.90
6954;DHT22;3516;47.980;8.808;2022-08-27T03:28:46;25.60;99.90
6954;DHT22;3516;47.980;8.808;2022-08-27T03:31:15;25.60;99.90
6954;DHT22;3516;47.980;8.808;2022-08-27T03:33:44;25.60;99.90
6954;DHT22;3516;47.980;8.808;2022-08-27T03:36:11;25.60;99.90
6954;DHT22;3516;47.980;8.808;2022-08-27T03:38:38;25.60;99.90
6954;DHT22;3516;47.980;8.808;2022-08-27T03:41:05;25.60;99.90
6954;DHT22;3516;47.980;8.808;2022-08-27T03:43:33;25.60;99.90
6954;DHT22;3516;47.980;8.808;2022-08-27T03:46:00;25.60;99.90
6954;DHT22;3516;47.980;8.808;2022-08-27T03:48:27;25.60;99.90
6954;DHT22;3516;47.980;8.808;2022-08-27T03:50:53;25.50;99.90
6954;DHT22;3516;47.980;8.808;2022-08-27T03:53:20;25.60;99.90
6954;DHT22;3516;47.980;8.808;2022-08-27T03:55:47;25.50;99.90
6954;DHT22;3516;47.980;8.808;2022-08-27T03:58:14;25.50;99.90
6954;DHT22;3516;47.980;8.808;2022-08-27T04:00:43;25.50;99.90
6954;DHT22;3516;47.980;8.808;2022-08-27T04:03:10;25.60;99.90
6954;DHT22;3516;47.980;8.808;2022-08-27T04:05:37;25.50;99.90
6954;DHT22;3516;47.980;8.808;2022-08-27T04:08:04;25.50;99.90
6954;DHT22;3516;47.980;8.808;2022-08-27T04:10:31;25.50;99.90
6954;DHT22;3516;47.980;8.808;2022-08-27T04:12:57;25.50;99.90
6954;DHT22;3516;47.980;8.808;2022-08-27T04:15:24;25.50;99.90
6954;DHT22;3516;47.980;8.808;2022-08-27T04:17:52;25.50;99.90
6954;DHT22;3516;47.980;8.808;2022-08-27T04:20:19;25.50;99.90
6954;DHT22;3516;47.980;8.808;2022-08-27T04:22:45;25.50;99.90
6954;DHT22;3516;47.980;8.808;2022-08-27T04:25:12;25.50;99.90
6954;DHT22;3516;47.980;8.808;2022-08-27T04:27:39;25.50;99.90
6954;DHT22;3516;47.980;8.808;2022-08-27T04:30:06;25.50;99.90
6954;DHT22;3516;47.980;8.808;2022-08-27T04:32:33;25.50;99.90
6954;DHT22;3516;47.980;8.808;2022-08-27T04:35:02;25.50;99.90
6954;DHT22;3516;47.980;8.808;2022-08-27T04:37:30;25.50;99.90
6954;DHT22;3516;47.980;8.808;2022-08-27T04:39:57;25.50;99.90
6954;DHT22;3516;47.980;8.808;2022-08-27T04:42:24;25.50;99.90
6954;DHT22;3516;47.980;8.808;2022-08-27T04:44:51;25.50;99.90
6954;DHT22;3516;47.980;8.808;2022-08-27T04:47:18;25.50;99.90
6954;DHT22;3516;47.980;8.808;2022-08-27T04:49:45;25.50;99.90
6954;DHT22;3516;47.980;8.808;2022-08-27T04:52:13;25.50;99.90
6954;DHT22;3516;47.980;8.808;2022-08-27T04:54:40;25.50;99.90
6954;DHT22;3516;47.980;8.808;2022-08-27T04:57:06;25.50;99.90
6954;DHT22;3516;47.980;8.808;2022-08-27T04:59:33;25.50;99.90
6954;DHT22;3516;47.980;8.808;2022-08-27T05:02:00;25.50;99.90
6954;DHT22;3516;47.980;8.808;2022-08-27T05:04:27;25.50;99.90
6954;DHT22;3516;47.980;8.808;2022-08-27T05:06:54;25.50;99.90
6954;DHT22;3516;47.980;8.808;2022-08-27T05:09:23;25.50;99.90
6954;DHT22;3516;47.980;8.808;2022-08-27T05:11:49;25.50;99.90
6954;DHT22;3516;47.980;8.808;2022-08-27T05:14:18;25.50;99.90
6954;DHT22;3516;47.980;8.808;2022-08-27T05:16:46;25.50;99.90
6954;DHT22;3516;47.980;8.808;2022-08-27T05:19:13;25.50;99.90
6954;DHT22;3516;47.980;8.808;2022-08-27T05:21:43;25.50;99.90
6954;DHT22;3516;47.980;8.808;2022-08-27T05:24:10;25.50;99.90
6954;DHT22;3516;47.980;8.808;2022-08-27T05:26:38;25.50;99.90
6954;DHT22;3516;47.980;8.808;2022-08-27T05:29:04;25.50;99.90
6954;DHT22;3516;47.980;8.808;2022-08-27T05:31:31;25.50;99.90
6954;DHT22;3516;47.980;8.808;2022-08-27T05:33:58;25.50;99.90
6954;DHT22;3516;47.980;8.808;2022-08-27T05:36:26;25.50;99.90
6954;DHT22;3516;47.980;8.808;2022-08-27T05:38:54;25.50;99.90
6954;DHT22;3516;47.980;8.808;2022-08-27T05:41:21;25.50;99.90
6954;DHT22;3516;47.980;8.808;2022-08-27T05:43:51;25.50;99.90
6954;DHT22;3516;47.980;8.808;2022-08-27T05:46:19;25.50;99.90
6954;DHT22;3516;47.980;8.808;2022-08-27T05:48:47;25.50;99.90
6954;DHT22;3516;47.980;8.808;2022-08-27T05:51:15;25.50;99.90
6954;DHT22;3516;47.980;8.808;2022-08-27T05:53:42;25.50;99.90
6954;DHT22;3516;47.980;8.808;2022-08-27T05:56:11;25.50;99.90
6954;DHT22;3516;47.980;8.808;2022-08-27T05:58:38;25.50;99.90
6954;DHT22;3516;47.980;8.808;2022-08-27T06:01:24;25.50;99.90
6954;DHT22;3516;47.980;8.808;2022-08-27T06:03:51;25.50;99.90
6954;DHT22;3516;47.980;8.808;2022-08-27T06:06:19;25.50;99.90
6954;DHT22;3516;47.980;8.808;2022-08-27T06:08:46;25.50;99.90
6954;DHT22;3516;47.980;8.808;2022-08-27T06:11:13;25.50;99.90
6954;DHT22;3516;47.980;8.808;2022-08-27T06:13:40;25.50;99.90
6954;DHT22;3516;47.980;8.808;2022-08-27T06:16:07;25.50;99.90
6954;DHT22;3516;47.980;8.808;2022-08-27T06:18:36;25.50;99.90
6954;DHT22;3516;47.980;8.808;2022-08-27T06:21:03;25.50;99.90
6954;DHT22;3516;47.980;8.808;2022-08-27T06:23:30;25.50;99.90
6954;DHT22;3516;47.980;8.808;2022-08-27T06:25:57;25.50;99.90
6954;DHT22;3516;47.980;8.808;2022-08-27T06:28:25;25.50;99.90
6954;DHT22;3516;47.980;8.808;2022-08-27T06:31:00;25.50;99.90
6954;DHT22;3516;47.980;8.808;2022-08-27T06:33:27;25.50;99.90
6954;DHT22;3516;47.980;8.808;2022-08-27T06:35:58;25.50;99.90
6954;DHT22;3516;47.980;8.808;2022-08-27T06:38:24;25.50;99.90
6954;DHT22;3516;47.980;8.808;2022-08-27T06:40:51;25.50;99.90
6954;DHT22;3516;47.980;8.808;2022-08-27T06:43:18;25.50;99.90
6954;DHT22;3516;47.980;8.808;2022-08-27T06:45:45;25.50;99.90
6954;DHT22;3516;47.980;8.808;2022-08-27T06:48:12;25.50;99.90
6954;DHT22;3516;47.980;8.808;2022-08-27T06:50:39;25.50;99.90
6954;DHT22;3516;47.980;8.808;2022-08-27T06:53:07;25.50;99.90
6954;DHT22;3516;47.980;8.808;2022-08-27T06:55:39;25.50;99.90
6954;DHT22;3516;47.980;8.808;2022-08-27T06:58:06;25.50;99.90
6954;DHT22;3516;47.980;8.808;2022-08-27T07:00:32;25.50;99.90
6954;DHT22;3516;47.980;8.808;2022-08-27T07:02:59;25.50;99.90
6954;DHT22;3516;47.980;8.808;2022-08-27T07:05:29;25.50;99.90
6954;DHT22;3516;47.980;8.808;2022-08-27T07:07:56;25.50;99.90
6954;DHT22;3516;47.980;8.808;2022-08-27T07:10:24;25.50;99.90
6954;DHT22;3516;47.980;8.808;2022-08-27T07:12:50;25.50;99.90
6954;DHT22;3516;47.980;8.808;2022-08-27T07:15:17;25.50;99.90
6954;DHT22;3516;47.980;8.808;2022-08-27T07:17:44;25.50;99.90
6954;DHT22;3516;47.980;8.808;2022-08-27T07:20:11;25.50;99.90
6954;DHT22;3516;47.980;8.808;2022-08-27T07:22:38;25.50;99.90
6954;DHT22;3516;47.980;8.808;2022-08-27T07:25:05;25.50;99.90
6954;DHT22;3516;47.980;8.808;2022-08-27T07:27:34;25.50;99.90
6954;DHT22;3516;47.980;8.808;2022-08-27T07:30:02;25.50;99.90
6954;DHT22;3516;47.980;8.808;2022-08-27T07:32:29;25.50;99.90
6954;DHT22;3516;47.980;8.808;2022-08-27T07:34:56;25.50;99.90
6954;DHT22;3516;47.980;8.808;2022-08-27T07:37:23;25.50;99.90
6954;DHT22;3516;47.980;8.808;2022-08-27T07:39:49;25.50;99.90
6954;DHT22;3516;47.980;8.808;2022-08-27T07:42:16;25.50;99.90
6954;DHT22;3516;47.980;8.808;2022-08-27T07:45:01;25.50;99.90
6954;DHT22;3516;47.980;8.808;2022-08-27T07:47:28;25.50;99.90
6954;DHT22;3516;47.980;8.808;2022-08-27T07:49:54;25.50;99.90
6954;DHT22;3516;47.980;8.808;2022-08-27T07:52:23;25.40;99.90
6954;DHT22;3516;47.980;8.808;2022-08-27T07:54:50;25.40;99.90
6954;DHT22;3516;47.980;8.808;2022-08-27T07:57:16;25.40;99.90
6954;DHT22;3516;47.980;8.808;2022-08-27T07:59:43;25.40;99.90
6954;DHT22;3516;47.980;8.808;2022-08-27T08:02:11;25.40;99.90
6954;DHT22;3516;47.980;8.808;2022-08-27T08:04:39;25.40;99.90
6954;DHT22;3516;47.980;8.808;2022-08-27T08:07:06;25.40;99.90
6954;DHT22;3516;47.980;8.808;2022-08-27T08:09:32;25.50;99.90
6954;DHT22;3516;47.980;8.808;2022-08-27T08:11:59;25.50;99.90
6954;DHT22;3516;47.980;8.808;2022-08-27T08:14:26;25.50;99.90
6954;DHT22;3516;47.980;8.808;2022-08-27T08:16:53;25.50;99.90
6954;DHT22;3516;47.980;8.808;2022-08-27T08:19:21;25.50;99.90
6954;DHT22;3516;47.980;8.808;2022-08-27T08:21:47;25.50;99.90
6954;DHT22;3516;47.980;8.808;2022-08-27T08:24:14;25.50;99.90
6954;DHT22;3516;47.980;8.808;2022-08-27T08:26:40;25.50;99.90
6954;DHT22;3516;47.980;8.808;2022-08-27T08:29:08;25.50;99.90
6954;DHT22;3516;47.980;8.808;2022-08-27T08:31:35;25.50;99.90
6954;DHT22;3516;47.980;8.808;2022-08-27T08:34:02;25.50;99.90
6954;DHT22;3516;47.980;8.808;2022-08-27T08:36:30;25.50;99.90
6954;DHT22;3516;47.980;8.808;2022-08-27T08:38:57;25.60;99.90
6954;DHT22;3516;47.980;8.808;2022-08-27T08:41:29;25.60;99.90
6954;DHT22;3516;47.980;8.808;2022-08-27T08:43:57;25.60;99.90
6954;DHT22;3516;47.980;8.808;2022-08-27T08:46:26;25.50;99.90
6954;DHT22;3516;47.980;8.808;2022-08-27T08:48:58;25.60;99.90
6954;DHT22;3516;47.980;8.808;2022-08-27T08:51:27;25.50;99.90
6954;DHT22;3516;47.980;8.808;2022-08-27T08:53:58;25.50;99.90
6954;DHT22;3516;47.980;8.808;2022-08-27T08:56:27;25.50;99.90
6954;DHT22;3516;47.980;8.808;2022-08-27T08:58:57;25.50;99.90
6954;DHT22;3516;47.980;8.808;2022-08-27T09:01:25;25.50;99.90
6954;DHT22;3516;47.980;8.808;2022-08-27T09:03:52;25.50;99.90
6954;DHT22;3516;47.980;8.808;2022-08-27T09:06:23;25.50;99.90
6954;DHT22;3516;47.980;8.808;2022-08-27T09:08:52;25.50;99.90
6954;DHT22;3516;47.980;8.808;2022-08-27T09:11:22;25.50;99.90
6954;DHT22;3516;47.980;8.808;2022-08-27T09:13:52;25.50;99.90
6954;DHT22;3516;47.980;8.808;2022-08-27T09:16:20;25.50;99.90
6954;DHT22;3516;47.980;8.808;2022-08-27T09:18:47;25.50;99.90
6954;DHT22;3516;47.980;8.808;2022-08-27T09:21:17;25.50;99.90
6954;DHT22;3516;47.980;8.808;2022-08-27T09:23:48;25.50;99.90
6954;DHT22;3516;47.980;8.808;2022-08-27T09:26:19;25.50;99.90
6954;DHT22;3516;47.980;8.808;2022-08-27T09:28:47;25.50;99.90
6954;DHT22;3516;47.980;8.808;2022-08-27T09:31:34;25.50;99.90
6954;DHT22;3516;47.980;8.808;2022-08-27T09:34:02;25.50;99.90
6954;DHT22;3516;47.980;8.808;2022-08-27T09:36:29;25.50;99.90
6954;DHT22;3516;47.980;8.808;2022-08-27T09:38:57;25.50;99.90
6954;DHT22;3516;47.980;8.808;2022-08-27T09:41:26;25.50;99.90
6954;DHT22;3516;47.980;8.808;2022-08-27T09:43:59;25.50;99.90
6954;DHT22;3516;47.980;8.808;2022-08-27T09:46:26;25.50;99.90
6954;DHT22;3516;47.980;8.808;2022-08-27T09:48:53;25.50;99.90
6954;DHT22;3516;47.980;8.808;2022-08-27T09:51:21;25.50;99.90
6954;DHT22;3516;47.980;8.808;2022-08-27T09:53:49;25.50;99.90
6954;DHT22;3516;47.980;8.808;2022-08-27T09:56:21;25.50;99.90
6954;DHT22;3516;47.980;8.808;2022-08-27T09:58:50;25.50;99.90
6954;DHT22;3516;47.980;8.808;2022-08-27T10:01:20;25.40;99.90
6954;DHT22;3516;47.980;8.808;2022-08-27T10:03:46;25.50;99.90
6954;DHT22;3516;47.980;8.808;2022-08-27T10:06:24;25.50;99.90
6954;DHT22;3516;47.980;8.808;2022-08-27T10:08:50;25.50;99.90
6954;DHT22;3516;47.980;8.808;2022-08-27T10:11:19;25.50;99.90
6954;DHT22;3516;47.980;8.808;2022-08-27T10:13:49;25.50;99.90
6954;DHT22;3516;47.980;8.808;2022-08-27T10:16:24;25.40;99.90
6954;DHT22;3516;47.980;8.808;2022-08-27T10:18:58;25.50;99.90
6954;DHT22;3516;47.980;8.808;2022-08-27T10:21:32;25.40;99.90
6954;DHT22;3516;47.980;8.808;2022-08-27T10:24:04;25.50;99.90
6954;DHT22;3516;47.980;8.808;2022-08-27T10:26:36;25.50;99.90
6954;DHT22;3516;47.980;8.808;2022-08-27T10:29:07;25.50;99.90
6954;DHT22;3516;47.980;8.808;2022-08-27T10:31:38;25.50;99.90
6954;DHT22;3516;47.980;8.808;2022-08-27T10:34:09;25.50;99.90
6954;DHT22;3516;47.980;8.808;2022-08-27T10:36:42;25.50;99.90
6954;DHT22;3516;47.980;8.808;2022-08-27T10:39:15;25.50;99.90
6954;DHT22;3516;47.980;8.808;2022-08-27T10:41:47;25.40;99.90
6954;DHT22;3516;47.980;8.808;2022-08-27T10:47:21;25.50;99.90
6954;DHT22;3516;47.980;8.808;2022-08-27T10:49:50;25.50;99.90
6954;DHT22;3516;47.980;8.808;2022-08-27T10:52:19;25.50;99.90
6954;DHT22;3516;47.980;8.808;2022-08-27T10:54:50;25.40;99.90
6954;DHT22;3516;47.980;8.808;2022-08-27T10:57:21;25.50;99.90
6954;DHT22;3516;47.980;8.808;2022-08-27T10:59:50;25.50;99.90
6954;DHT22;3516;47.980;8.808;2022-08-27T11:02:25;25.40;99.90
6954;DHT22;3516;47.980;8.808;2022-08-27T11:04:55;25.50;99.90
6954;DHT22;3516;47.980;8.808;2022-08-27T11:07:24;25.50;99.90
6954;DHT22;3516;47.980;8.808;2022-08-27T11:09:53;25.40;99.90
6954;DHT22;3516;47.980;8.808;2022-08-27T11:12:24;25.50;99.90
6954;DHT22;3516;47.980;8.808;2022-08-27T11:14:52;25.40;99.90
6954;DHT22;3516;47.980;8.808;2022-08-27T11:17:23;25.40;99.80
6954;DHT22;3516;47.980;8.808;2022-08-27T11:19:53;25.40;99.90
6954;DHT22;3516;47.980;8.808;2022-08-27T11:22:21;25.40;99.70
6954;DHT22;3516;47.980;8.808;2022-08-27T11:24:50;25.40;99.60
6954;DHT22;3516;47.980;8.808;2022-08-27T11:27:21;25.40;99.50
6954;DHT22;3516;47.980;8.808;2022-08-27T11:29:50;25.40;99.40
6954;DHT22;3516;47.980;8.808;2022-08-27T11:32:21;25.40;99.30
6954;DHT22;3516;47.980;8.808;2022-08-27T11:34:52;25.40;99.30
6954;DHT22;3516;47.980;8.808;2022-08-27T11:37:27;25.40;99.20
6954;DHT22;3516;47.980;8.808;2022-08-27T11:40:00;25.40;99.20
6954;DHT22;3516;47.980;8.808;2022-08-27T11:42:32;25.50;99.10
6954;DHT22;3516;47.980;8.808;2022-08-27T11:45:02;25.40;99.10
6954;DHT22;3516;47.980;8.808;2022-08-27T11:47:29;25.50;99.00
6954;DHT22;3516;47.980;8.808;2022-08-27T11:49:57;25.50;99.00
6954;DHT22;3516;47.980;8.808;2022-08-27T11:52:28;25.50;99.00
6954;DHT22;3516;47.980;8.808;2022-08-27T11:54:56;25.50;98.90
6954;DHT22;3516;47.980;8.808;2022-08-27T11:57:27;25.50;98.90
6954;DHT22;3516;47.980;8.808;2022-08-27T11:59:54;25.50;98.80
6954;DHT22;3516;47.980;8.808;2022-08-27T12:02:22;25.50;98.70
6954;DHT22;3516;47.980;8.808;2022-08-27T12:04:50;25.50;98.60
6954;DHT22;3516;47.980;8.808;2022-08-27T12:07:23;25.50;98.60
6954;DHT22;3516;47.980;8.808;2022-08-27T12:09:59;25.50;98.60
6954;DHT22;3516;47.980;8.808;2022-08-27T12:12:32;25.50;98.60
6954;DHT22;3516;47.980;8.808;2022-08-27T12:15:01;25.50;98.70
6954;DHT22;3516;47.980;8.808;2022-08-27T12:17:32;25.50;98.70
6954;DHT22;3516;47.980;8.808;2022-08-27T12:20:03;25.50;98.70
6954;DHT22;3516;47.980;8.808;2022-08-27T12:22:37;25.50;98.80
6954;DHT22;3516;47.980;8.808;2022-08-27T12:25:22;25.60;98.80
6954;DHT22;3516;47.980;8.808;2022-08-27T12:27:53;25.50;98.80
6954;DHT22;3516;47.980;8.808;2022-08-27T12:30:21;25.60;98.80
6954;DHT22;3516;47.980;8.808;2022-08-27T12:32:48;25.60;98.80
6954;DHT22;3516;47.980;8.808;2022-08-27T12:35:17;25.50;98.80
6954;DHT22;3516;47.980;8.808;2022-08-27T12:37:45;25.60;98.90
6954;DHT22;3516;47.980;8.808;2022-08-27T12:40:16;25.60;98.90
6954;DHT22;3516;47.980;8.808;2022-08-27T12:42:45;25.60;99.00
6954;DHT22;3516;47.980;8.808;2022-08-27T12:45:22;25.60;99.10
6954;DHT22;3516;47.980;8.808;2022-08-27T12:47:50;25.60;99.20
6954;DHT22;3516;47.980;8.808;2022-08-27T12:50:21;25.60;99.30
6954;DHT22;3516;47.980;8.808;2022-08-27T12:52:51;25.60;99.40
6954;DHT22;3516;47.980;8.808;2022-08-27T12:55:23;25.60;99.60
6954;DHT22;3516;47.980;8.808;2022-08-27T12:57:57;25.60;99.80
6954;DHT22;3516;47.980;8.808;2022-08-27T13:00:28;25.60;99.90
6954;DHT22;3516;47.980;8.808;2022-08-27T13:03:10;25.70;99.90
6954;DHT22;3516;47.980;8.808;2022-08-27T13:05:42;25.70;99.90
6954;DHT22;3516;47.980;8.808;2022-08-27T13:08:16;25.70;99.90
6954;DHT22;3516;47.980;8.808;2022-08-27T13:10:43;25.70;99.90
6954;DHT22;3516;47.980;8.808;2022-08-27T13:13:20;25.70;99.90
6954;DHT22;3516;47.980;8.808;2022-08-27T13:15:48;25.70;99.90
6954;DHT22;3516;47.980;8.808;2022-08-27T13:18:16;25.80;99.90
6954;DHT22;3516;47.980;8.808;2022-08-27T13:20:43;25.80;99.90
6954;DHT22;3516;47.980;8.808;2022-08-27T13:23:14;25.80;99.90
6954;DHT22;3516;47.980;8.808;2022-08-27T13:25:51;25.80;99.90
6954;DHT22;3516;47.980;8.808;2022-08-27T13:28:20;25.80;99.90
6954;DHT22;3516;47.980;8.808;2022-08-27T13:30:47;25.80;99.90
6954;DHT22;3516;47.980;8.808;2022-08-27T13:33:17;25.80;99.90
6954;DHT22;3516;47.980;8.808;2022-08-27T13:35:45;25.80;99.90
6954;DHT22;3516;47.980;8.808;2022-08-27T13:38:12;25.80;99.90
6954;DHT22;3516;47.980;8.808;2022-08-27T13:40:49;25.80;99.90
6954;DHT22;3516;47.980;8.808;2022-08-27T13:43:16;25.80;99.90
6954;DHT22;3516;47.980;8.808;2022-08-27T13:45:46;25.80;99.90
6954;DHT22;3516;47.980;8.808;2022-08-27T13:48:14;25.80;99.90
6954;DHT22;3516;47.980;8.808;2022-08-27T13:50:46;25.80;99.90
6954;DHT22;3516;47.980;8.808;2022-08-27T13:53:15;25.80;99.90
6954;DHT22;3516;47.980;8.808;2022-08-27T13:56:01;25.70;99.90
6954;DHT22;3516;47.980;8.808;2022-08-27T13:58:29;25.70;99.90
6954;DHT22;3516;47.980;8.808;2022-08-27T14:01:07;25.70;99.90
6954;DHT22;3516;47.980;8.808;2022-08-27T14:03:35;25.70;99.90
6954;DHT22;3516;47.980;8.808;2022-08-27T14:06:03;25.70;99.90
6954;DHT22;3516;47.980;8.808;2022-08-27T14:08:31;25.70;99.90
6954;DHT22;3516;47.980;8.808;2022-08-27T14:10:59;25.70;99.90
6954;DHT22;3516;47.980;8.808;2022-08-27T14:13:36;25.60;99.90
6954;DHT22;3516;47.980;8.808;2022-08-27T14:16:11;25.60;99.90
6954;DHT22;3516;47.980;8.808;2022-08-27T14:18:48;25.60;99.90
6954;DHT22;3516;47.980;8.808;2022-08-27T14:21:16;25.60;99.90
6954;DHT22;3516;47.980;8.808;2022-08-27T14:23:42;25.60;99.90
6954;DHT22;3516;47.980;8.808;2022-08-27T14:26:09;25.60;99.90
6954;DHT22;3516;47.980;8.808;2022-08-27T14:28:36;25.60;99.90
6954;DHT22;3516;47.980;8.808;2022-08-27T14:31:02;25.60;99.90
6954;DHT22;3516;47.980;8.808;2022-08-27T14:33:29;25.60;99.90
6954;DHT22;3516;47.980;8.808;2022-08-27T14:35:57;25.60;99.90
6954;DHT22;3516;47.980;8.808;2022-08-27T14:38:30;25.60;99.90
6954;DHT22;3516;47.980;8.808;2022-08-27T14:40:58;25.60;99.90
6954;DHT22;3516;47.980;8.808;2022-08-27T14:43:25;25.60;99.90
6954;DHT22;3516;47.980;8.808;2022-08-27T14:45:51;25.60;99.90
6954;DHT22;3516;47.980;8.808;2022-08-27T14:48:20;25.50;99.90
6954;DHT22;3516;47.980;8.808;2022-08-27T14:50:47;25.50;99.90
6954;DHT22;3516;47.980;8.808;2022-08-27T14:53:15;25.50;99.90
6954;DHT22;3516;47.980;8.808;2022-08-27T14:55:44;25.50;99.90
6954;DHT22;3516;47.980;8.808;2022-08-27T14:58:10;25.50;99.90
6954;DHT22;3516;47.980;8.808;2022-08-27T15:00:38;25.50;99.90
6954;DHT22;3516;47.980;8.808;2022-08-27T15:03:04;25.50;99.90
6954;DHT22;3516;47.980;8.808;2022-08-27T15:05:32;25.50;99.90
6954;DHT22;3516;47.980;8.808;2022-08-27T15:07:58;25.50;99.90
6954;DHT22;3516;47.980;8.808;2022-08-27T15:10:27;25.50;99.90
6954;DHT22;3516;47.980;8.808;2022-08-27T15:12:53;25.50;99.90
6954;DHT22;3516;47.980;8.808;2022-08-27T15:15:20;25.50;99.90
6954;DHT22;3516;47.980;8.808;2022-08-27T15:17:47;25.50;99.90
6954;DHT22;3516;47.980;8.808;2022-08-27T15:20:14;25.50;99.90
6954;DHT22;3516;47.980;8.808;2022-08-27T15:22:41;25.50;99.90
6954;DHT22;3516;47.980;8.808;2022-08-27T15:25:08;25.50;99.90
6954;DHT22;3516;47.980;8.808;2022-08-27T15:27:37;25.40;99.90
6954;DHT22;3516;47.980;8.808;2022-08-27T15:30:04;25.40;99.90
6954;DHT22;3516;47.980;8.808;2022-08-27T15:32:32;25.40;99.90
6954;DHT22;3516;47.980;8.808;2022-08-27T15:35:00;25.40;99.90
6954;DHT22;3516;47.980;8.808;2022-08-27T15:37:29;25.40;99.90
6954;DHT22;3516;47.980;8.808;2022-08-27T15:39:56;25.40;99.90
6954;DHT22;3516;47.980;8.808;2022-08-27T15:42:22;25.40;99.90
6954;DHT22;3516;47.980;8.808;2022-08-27T15:44:51;25.40;99.90
6954;DHT22;3516;47.980;8.808;2022-08-27T15:47:18;25.40;99.90
6954;DHT22;3516;47.980;8.808;2022-08-27T15:49:45;25.40;99.90
6954;DHT22;3516;47.980;8.808;2022-08-27T15:52:12;25.40;99.90
6954;DHT22;3516;47.980;8.808;2022-08-27T15:54:40;25.40;99.90
6954;DHT22;3516;47.980;8.808;2022-08-27T15:57:08;25.40;99.90
6954;DHT22;3516;47.980;8.808;2022-08-27T15:59:35;25.40;99.90
6954;DHT22;3516;47.980;8.808;2022-08-27T16:02:03;25.40;99.90
6954;DHT22;3516;47.980;8.808;2022-08-27T16:04:30;25.00;99.90
6954;DHT22;3516;47.980;8.808;2022-08-27T16:06:56;25.40;99.90
6954;DHT22;3516;47.980;8.808;2022-08-27T16:09:23;25.40;99.90
6954;DHT22;3516;47.980;8.808;2022-08-27T16:11:50;25.40;99.90
6954;DHT22;3516;47.980;8.808;2022-08-27T16:14:16;25.40;99.90